Portada
METAR-TAF:

METAR-TAF

Aeroports :

Londres Southend, Anglaterra

latitud: 51-34N, longitud: 000-42E, altitud: 15 m

Observació

L'informe es va fer fa 28 minuts, a les 11:50 UTC
Vent 4 kt del Oest
Temperatura 5°C
Humitat 87%
Pressió 1042 hPa
Visibilitat 10 km o més
Escasses núvols a una alçada de 1400 ft

METAR: EGMC 211150Z 27004KT 9999 FEW014 05/03 Q1042

Hora: 12:18 (12:18 UTC)

Pronòstic

L'informe es va fer fa 1 hora i 14 minuts, a les 11:04 UTC
Pronòstic vàlid del 21 a les 12 UTC al 21 a les 21 UTC
Vent 3 kt del Oest
Visibilitat 10 km o més
Escasses núvols a una alçada de 1400 ft
Probabilitat 30% :
Temporalment
l' 21 a les 12 UTC al 21 a les 18 UTC
Cel ennuvolat a una alçada de 1400 ft
Evolucionant progressivament
l' 21 a les 18 UTC al 21 a les 21 UTC
Visibilitat: 4000 m
Cel ennuvolat a una alçada de 1400 ft
boirina

TAF: EGMC 211104Z 2112/2121 27003KT 9999 FEW014 PROB30 TEMPO 2112/2118 BKN014 BECMG 2118/2121 4000 BR BKN014

Observacions i pronòstics meteorològics de més de 4000 aeroports (METAR i TAF).

Les estacions disponibles són els punts grocs i vermells al mapa.

Posi el ratolí al punt desitjat per veure el nom de l'estació.

Feu clic per veure les observacions i els pronòstics meteorològics.

Per canviar el mapa: feu clic els botons verds amb una creu de color negre per apropar; al botó verd amb un guió per allunyar la imatge; o en les fletxes verdes per a mapes adjacents.


METAR-TAF: